sensor_id;sensor_type;location;lat;lon;timestamp;P1;durP1;ratioP1;P2;durP2;ratioP2
34876;SDS011;21086;44.780;17.194;2022-09-13T00:01:01;1.50;;;1.00;;
34876;SDS011;21086;44.780;17.194;2022-09-13T00:03:29;1.90;;;1.45;;
34876;SDS011;21086;44.780;17.194;2022-09-13T00:05:56;1.30;;;1.10;;
34876;SDS011;21086;44.780;17.194;2022-09-13T00:08:24;3.10;;;1.50;;
34876;SDS011;21086;44.780;17.194;2022-09-13T00:10:52;4.32;;;1.15;;
34876;SDS011;21086;44.780;17.194;2022-09-13T00:13:18;2.20;;;1.13;;
34876;SDS011;21086;44.780;17.194;2022-09-13T00:15:46;6.85;;;1.15;;
34876;SDS011;21086;44.780;17.194;2022-09-13T00:18:14;2.20;;;1.13;;
34876;SDS011;21086;44.780;17.194;2022-09-13T00:20:42;1.58;;;1.02;;
34876;SDS011;21086;44.780;17.194;2022-09-13T00:23:10;4.95;;;1.70;;
34876;SDS011;21086;44.780;17.194;2022-09-13T00:25:37;2.05;;;1.50;;
34876;SDS011;21086;44.780;17.194;2022-09-13T00:28:04;8.70;;;2.47;;
34876;SDS011;21086;44.780;17.194;2022-09-13T00:30:31;5.22;;;2.40;;
34876;SDS011;21086;44.780;17.194;2022-09-13T00:32:58;3.88;;;2.20;;
34876;SDS011;21086;44.780;17.194;2022-09-13T00:35:29;4.05;;;2.65;;
34876;SDS011;21086;44.780;17.194;2022-09-13T00:37:58;3.80;;;2.03;;
34876;SDS011;21086;44.780;17.194;2022-09-13T00:40:26;4.70;;;1.90;;
34876;SDS011;21086;44.780;17.194;2022-09-13T00:42:54;3.83;;;1.70;;
34876;SDS011;21086;44.780;17.194;2022-09-13T00:45:21;4.28;;;1.90;;
34876;SDS011;21086;44.780;17.194;2022-09-13T00:47:50;3.83;;;1.60;;
34876;SDS011;21086;44.780;17.194;2022-09-13T00:52:52;3.75;;;1.55;;
34876;SDS011;21086;44.780;17.194;2022-09-13T00:55:33;2.25;;;1.60;;
34876;SDS011;21086;44.780;17.194;2022-09-13T00:58:08;6.25;;;1.40;;
34876;SDS011;21086;44.780;17.194;2022-09-13T01:00:39;5.80;;;1.63;;
34876;SDS011;21086;44.780;17.194;2022-09-13T01:03:07;1.70;;;1.10;;
34876;SDS011;21086;44.780;17.194;2022-09-13T01:05:39;1.80;;;1.50;;
34876;SDS011;21086;44.780;17.194;2022-09-13T01:08:16;2.78;;;1.60;;
34876;SDS011;21086;44.780;17.194;2022-09-13T01:10:50;2.60;;;1.80;;
34876;SDS011;21086;44.780;17.194;2022-09-13T01:13:20;2.35;;;1.50;;
34876;SDS011;21086;44.780;17.194;2022-09-13T01:15:49;2.60;;;1.70;;
34876;SDS011;21086;44.780;17.194;2022-09-13T01:18:17;4.20;;;1.92;;
34876;SDS011;21086;44.780;17.194;2022-09-13T01:23:35;4.50;;;1.63;;
34876;SDS011;21086;44.780;17.194;2022-09-13T01:31:43;6.70;;;2.03;;
34876;SDS011;21086;44.780;17.194;2022-09-13T01:40:02;2.00;;;1.35;;
34876;SDS011;21086;44.780;17.194;2022-09-13T01:42:56;3.03;;;1.60;;
34876;SDS011;21086;44.780;17.194;2022-09-13T01:45:58;4.85;;;1.48;;
34876;SDS011;21086;44.780;17.194;2022-09-13T01:54:10;4.63;;;1.25;;
34876;SDS011;21086;44.780;17.194;2022-09-13T01:57:14;2.85;;;1.48;;
34876;SDS011;21086;44.780;17.194;2022-09-13T02:02:22;1.85;;;1.45;;
34876;SDS011;21086;44.780;17.194;2022-09-13T02:05:01;2.60;;;1.42;;
34876;SDS011;21086;44.780;17.194;2022-09-13T02:07:42;4.43;;;1.67;;
34876;SDS011;21086;44.780;17.194;2022-09-13T02:10:19;2.13;;;1.35;;
34876;SDS011;21086;44.780;17.194;2022-09-13T02:12:52;1.67;;;1.42;;
34876;SDS011;21086;44.780;17.194;2022-09-13T02:15:22;4.25;;;1.70;;
34876;SDS011;21086;44.780;17.194;2022-09-13T02:18:07;2.33;;;1.65;;
34876;SDS011;21086;44.780;17.194;2022-09-13T02:20:43;4.50;;;1.70;;
34876;SDS011;21086;44.780;17.194;2022-09-13T02:23:14;2.15;;;1.27;;
34876;SDS011;21086;44.780;17.194;2022-09-13T02:25:51;2.92;;;1.60;;
34876;SDS011;21086;44.780;17.194;2022-09-13T02:28:21;3.25;;;2.10;;
34876;SDS011;21086;44.780;17.194;2022-09-13T02:30:53;3.53;;;1.65;;
34876;SDS011;21086;44.780;17.194;2022-09-13T02:33:25;3.00;;;1.45;;
34876;SDS011;21086;44.780;17.194;2022-09-13T02:36:02;5.05;;;1.67;;
34876;SDS011;21086;44.780;17.194;2022-09-13T02:38:32;3.15;;;1.70;;
34876;SDS011;21086;44.780;17.194;2022-09-13T02:41:18;3.90;;;1.63;;
34876;SDS011;21086;44.780;17.194;2022-09-13T02:43:49;3.83;;;1.00;;
34876;SDS011;21086;44.780;17.194;2022-09-13T02:54:26;4.45;;;1.58;;
34876;SDS011;21086;44.780;17.194;2022-09-13T02:57:12;4.60;;;1.30;;
34876;SDS011;21086;44.780;17.194;2022-09-13T02:59:47;1.92;;;1.17;;
34876;SDS011;21086;44.780;17.194;2022-09-13T03:02:15;2.95;;;1.27;;
34876;SDS011;21086;44.780;17.194;2022-09-13T03:04:49;2.55;;;1.38;;
34876;SDS011;21086;44.780;17.194;2022-09-13T03:07:16;2.67;;;1.77;;
34876;SDS011;21086;44.780;17.194;2022-09-13T03:10:06;2.85;;;1.60;;
34876;SDS011;21086;44.780;17.194;2022-09-13T03:20:23;3.40;;;1.67;;
34876;SDS011;21086;44.780;17.194;2022-09-13T03:23:26;2.50;;;1.67;;
34876;SDS011;21086;44.780;17.194;2022-09-13T03:26:11;2.85;;;1.50;;
34876;SDS011;21086;44.780;17.194;2022-09-13T03:31:26;1.88;;;1.48;;
34876;SDS011;21086;44.780;17.194;2022-09-13T03:34:02;3.25;;;1.70;;
34876;SDS011;21086;44.780;17.194;2022-09-13T03:39:09;6.57;;;2.00;;
34876;SDS011;21086;44.780;17.194;2022-09-13T03:41:48;4.50;;;2.25;;
34876;SDS011;21086;44.780;17.194;2022-09-13T03:44:19;4.05;;;2.08;;
34876;SDS011;21086;44.780;17.194;2022-09-13T03:46:50;3.35;;;1.95;;
34876;SDS011;21086;44.780;17.194;2022-09-13T03:49:20;3.55;;;1.98;;
34876;SDS011;21086;44.780;17.194;2022-09-13T03:51:48;4.25;;;2.10;;
34876;SDS011;21086;44.780;17.194;2022-09-13T03:54:19;4.18;;;1.85;;
34876;SDS011;21086;44.780;17.194;2022-09-13T03:57:07;2.28;;;1.55;;
34876;SDS011;21086;44.780;17.194;2022-09-13T03:59:35;3.78;;;1.55;;
34876;SDS011;21086;44.780;17.194;2022-09-13T04:02:04;3.22;;;1.73;;
34876;SDS011;21086;44.780;17.194;2022-09-13T04:04:37;3.20;;;1.88;;
34876;SDS011;21086;44.780;17.194;2022-09-13T04:07:05;5.90;;;2.10;;
34876;SDS011;21086;44.780;17.194;2022-09-13T04:09:33;3.72;;;2.15;;
34876;SDS011;21086;44.780;17.194;2022-09-13T04:12:00;4.82;;;1.90;;
34876;SDS011;21086;44.780;17.194;2022-09-13T04:14:27;4.13;;;2.00;;
34876;SDS011;21086;44.780;17.194;2022-09-13T04:16:55;2.03;;;1.40;;
34876;SDS011;21086;44.780;17.194;2022-09-13T04:19:23;2.97;;;1.70;;
34876;SDS011;21086;44.780;17.194;2022-09-13T04:21:52;3.63;;;1.90;;
34876;SDS011;21086;44.780;17.194;2022-09-13T04:24:22;3.45;;;1.95;;
34876;SDS011;21086;44.780;17.194;2022-09-13T04:26:52;2.05;;;1.50;;
34876;SDS011;21086;44.780;17.194;2022-09-13T04:29:20;5.32;;;2.25;;
34876;SDS011;21086;44.780;17.194;2022-09-13T04:31:49;2.83;;;1.80;;
34876;SDS011;21086;44.780;17.194;2022-09-13T04:34:17;2.90;;;1.75;;
34876;SDS011;21086;44.780;17.194;2022-09-13T04:36:44;7.55;;;1.75;;
34876;SDS011;21086;44.780;17.194;2022-09-13T04:39:12;5.25;;;1.63;;
34876;SDS011;21086;44.780;17.194;2022-09-13T04:41:43;3.97;;;1.77;;
34876;SDS011;21086;44.780;17.194;2022-09-13T04:44:16;4.95;;;1.80;;
34876;SDS011;21086;44.780;17.194;2022-09-13T04:46:45;2.20;;;1.42;;
34876;SDS011;21086;44.780;17.194;2022-09-13T04:49:14;6.75;;;1.70;;
34876;SDS011;21086;44.780;17.194;2022-09-13T04:51:42;5.50;;;1.60;;
34876;SDS011;21086;44.780;17.194;2022-09-13T04:54:10;2.25;;;1.20;;
34876;SDS011;21086;44.780;17.194;2022-09-13T04:56:45;2.72;;;2.00;;
34876;SDS011;21086;44.780;17.194;2022-09-13T04:59:12;2.35;;;1.55;;
34876;SDS011;21086;44.780;17.194;2022-09-13T05:01:39;6.38;;;2.55;;
34876;SDS011;21086;44.780;17.194;2022-09-13T05:04:07;3.20;;;2.30;;
34876;SDS011;21086;44.780;17.194;2022-09-13T05:06:35;6.53;;;2.00;;
34876;SDS011;21086;44.780;17.194;2022-09-13T05:09:02;3.10;;;1.60;;
34876;SDS011;21086;44.780;17.194;2022-09-13T05:11:30;3.13;;;1.63;;
34876;SDS011;21086;44.780;17.194;2022-09-13T05:13:58;5.15;;;1.73;;
34876;SDS011;21086;44.780;17.194;2022-09-13T05:16:29;3.22;;;1.65;;
34876;SDS011;21086;44.780;17.194;2022-09-13T05:18:58;3.63;;;1.42;;
34876;SDS011;21086;44.780;17.194;2022-09-13T05:21:25;3.47;;;1.77;;
34876;SDS011;21086;44.780;17.194;2022-09-13T05:23:53;5.85;;;2.05;;
34876;SDS011;21086;44.780;17.194;2022-09-13T05:26:22;5.22;;;1.92;;
34876;SDS011;21086;44.780;17.194;2022-09-13T05:28:50;3.45;;;1.55;;
34876;SDS011;21086;44.780;17.194;2022-09-13T05:31:18;3.95;;;1.70;;
34876;SDS011;21086;44.780;17.194;2022-09-13T05:33:52;6.53;;;2.15;;
34876;SDS011;21086;44.780;17.194;2022-09-13T05:36:21;4.00;;;1.67;;
34876;SDS011;21086;44.780;17.194;2022-09-13T05:38:48;7.72;;;2.20;;
34876;SDS011;21086;44.780;17.194;2022-09-13T05:41:37;4.20;;;1.98;;
34876;SDS011;21086;44.780;17.194;2022-09-13T05:44:04;5.28;;;1.95;;
34876;SDS011;21086;44.780;17.194;2022-09-13T05:46:38;2.25;;;1.58;;
34876;SDS011;21086;44.780;17.194;2022-09-13T05:49:05;5.10;;;1.73;;
34876;SDS011;21086;44.780;17.194;2022-09-13T05:51:32;2.67;;;1.63;;
34876;SDS011;21086;44.780;17.194;2022-09-13T05:54:00;1.92;;;1.38;;
34876;SDS011;21086;44.780;17.194;2022-09-13T05:56:27;5.00;;;1.70;;
34876;SDS011;21086;44.780;17.194;2022-09-13T05:58:55;7.45;;;1.52;;
34876;SDS011;21086;44.780;17.194;2022-09-13T06:01:23;2.70;;;1.50;;
34876;SDS011;21086;44.780;17.194;2022-09-13T06:03:52;7.18;;;1.52;;
34876;SDS011;21086;44.780;17.194;2022-09-13T06:06:21;2.28;;;1.23;;
34876;SDS011;21086;44.780;17.194;2022-09-13T06:08:52;5.70;;;1.25;;
34876;SDS011;21086;44.780;17.194;2022-09-13T06:11:20;2.10;;;1.40;;
34876;SDS011;21086;44.780;17.194;2022-09-13T06:13:47;4.30;;;1.17;;
34876;SDS011;21086;44.780;17.194;2022-09-13T06:16:15;6.18;;;1.08;;
34876;SDS011;21086;44.780;17.194;2022-09-13T06:18:43;2.20;;;1.20;;
34876;SDS011;21086;44.780;17.194;2022-09-13T06:21:14;2.13;;;1.20;;
34876;SDS011;21086;44.780;17.194;2022-09-13T06:23:44;2.35;;;1.17;;
34876;SDS011;21086;44.780;17.194;2022-09-13T06:26:17;2.78;;;1.08;;
34876;SDS011;21086;44.780;17.194;2022-09-13T06:28:46;1.42;;;1.10;;
34876;SDS011;21086;44.780;17.194;2022-09-13T06:31:15;4.78;;;1.67;;
34876;SDS011;21086;44.780;17.194;2022-09-13T06:33:43;1.67;;;1.10;;
34876;SDS011;21086;44.780;17.194;2022-09-13T06:36:17;3.85;;;1.17;;
34876;SDS011;21086;44.780;17.194;2022-09-13T06:38:45;2.10;;;1.20;;
34876;SDS011;21086;44.780;17.194;2022-09-13T06:41:15;2.92;;;1.73;;
34876;SDS011;21086;44.780;17.194;2022-09-13T06:43:46;4.28;;;2.00;;
34876;SDS011;21086;44.780;17.194;2022-09-13T06:46:17;7.32;;;2.30;;
34876;SDS011;21086;44.780;17.194;2022-09-13T06:48:51;4.47;;;2.25;;
34876;SDS011;21086;44.780;17.194;2022-09-13T06:51:19;4.13;;;1.98;;
34876;SDS011;21086;44.780;17.194;2022-09-13T06:53:48;5.88;;;1.95;;
34876;SDS011;21086;44.780;17.194;2022-09-13T06:56:16;3.67;;;2.13;;
34876;SDS011;21086;44.780;17.194;2022-09-13T06:58:49;3.08;;;2.00;;
34876;SDS011;21086;44.780;17.194;2022-09-13T07:01:19;6.75;;;2.42;;
34876;SDS011;21086;44.780;17.194;2022-09-13T07:03:49;5.00;;;2.22;;
34876;SDS011;21086;44.780;17.194;2022-09-13T07:06:23;7.80;;;2.30;;
34876;SDS011;21086;44.780;17.194;2022-09-13T07:08:55;3.38;;;2.50;;
34876;SDS011;21086;44.780;17.194;2022-09-13T07:11:24;5.22;;;2.08;;
34876;SDS011;21086;44.780;17.194;2022-09-13T07:13:53;3.17;;;2.05;;
34876;SDS011;21086;44.780;17.194;2022-09-13T07:16:22;3.72;;;2.17;;
34876;SDS011;21086;44.780;17.194;2022-09-13T07:18:59;3.88;;;2.20;;
34876;SDS011;21086;44.780;17.194;2022-09-13T07:21:28;6.95;;;2.75;;
34876;SDS011;21086;44.780;17.194;2022-09-13T07:23:55;3.65;;;2.25;;
34876;SDS011;21086;44.780;17.194;2022-09-13T07:26:23;7.20;;;2.33;;
34876;SDS011;21086;44.780;17.194;2022-09-13T07:28:53;2.80;;;2.25;;
34876;SDS011;21086;44.780;17.194;2022-09-13T07:31:26;3.00;;;2.00;;
34876;SDS011;21086;44.780;17.194;2022-09-13T07:33:55;6.82;;;1.92;;
34876;SDS011;21086;44.780;17.194;2022-09-13T07:36:27;3.50;;;1.83;;
34876;SDS011;21086;44.780;17.194;2022-09-13T07:38:56;5.63;;;2.22;;
34876;SDS011;21086;44.780;17.194;2022-09-13T07:41:23;2.30;;;1.58;;
34876;SDS011;21086;44.780;17.194;2022-09-13T07:43:52;2.40;;;1.80;;
34876;SDS011;21086;44.780;17.194;2022-09-13T07:46:22;7.30;;;2.00;;
34876;SDS011;21086;44.780;17.194;2022-09-13T07:48:54;2.45;;;1.40;;
34876;SDS011;21086;44.780;17.194;2022-09-13T07:51:23;2.63;;;1.50;;
34876;SDS011;21086;44.780;17.194;2022-09-13T07:53:53;1.83;;;1.25;;
34876;SDS011;21086;44.780;17.194;2022-09-13T07:56:26;5.28;;;1.45;;
34876;SDS011;21086;44.780;17.194;2022-09-13T07:58:55;2.92;;;1.20;;
34876;SDS011;21086;44.780;17.194;2022-09-13T08:01:29;2.45;;;1.45;;
34876;SDS011;21086;44.780;17.194;2022-09-13T08:04:04;3.97;;;1.30;;
34876;SDS011;21086;44.780;17.194;2022-09-13T08:06:33;3.03;;;1.50;;
34876;SDS011;21086;44.780;17.194;2022-09-13T08:09:01;3.17;;;1.50;;
34876;SDS011;21086;44.780;17.194;2022-09-13T08:11:30;2.63;;;1.50;;
34876;SDS011;21086;44.780;17.194;2022-09-13T08:14:03;2.08;;;1.40;;
34876;SDS011;21086;44.780;17.194;2022-09-13T08:16:31;2.88;;;1.48;;
34876;SDS011;21086;44.780;17.194;2022-09-13T08:19:00;2.28;;;1.30;;
34876;SDS011;21086;44.780;17.194;2022-09-13T08:21:32;5.75;;;1.40;;
34876;SDS011;21086;44.780;17.194;2022-09-13T08:24:01;3.92;;;1.30;;
34876;SDS011;21086;44.780;17.194;2022-09-13T08:26:30;2.95;;;1.40;;
34876;SDS011;21086;44.780;17.194;2022-09-13T08:28:59;5.82;;;1.05;;
34876;SDS011;21086;44.780;17.194;2022-09-13T08:31:27;1.65;;;0.93;;
34876;SDS011;21086;44.780;17.194;2022-09-13T08:33:55;1.75;;;1.00;;
34876;SDS011;21086;44.780;17.194;2022-09-13T08:36:23;1.52;;;0.98;;
34876;SDS011;21086;44.780;17.194;2022-09-13T08:38:52;2.28;;;1.05;;
34876;SDS011;21086;44.780;17.194;2022-09-13T08:44:27;5.28;;;1.48;;
34876;SDS011;21086;44.780;17.194;2022-09-13T08:49:48;6.97;;;1.98;;
34876;SDS011;21086;44.780;17.194;2022-09-13T08:52:27;3.05;;;1.17;;
34876;SDS011;21086;44.780;17.194;2022-09-13T08:54:58;1.50;;;0.98;;
34876;SDS011;21086;44.780;17.194;2022-09-13T09:00:25;1.35;;;1.17;;
34876;SDS011;21086;44.780;17.194;2022-09-13T09:05:51;5.63;;;1.23;;
34876;SDS011;21086;44.780;17.194;2022-09-13T09:11:06;6.35;;;1.33;;
34876;SDS011;21086;44.780;17.194;2022-09-13T09:13:51;2.85;;;0.93;;
34876;SDS011;21086;44.780;17.194;2022-09-13T09:16:39;3.47;;;1.73;;
34876;SDS011;21086;44.780;17.194;2022-09-13T09:19:16;1.55;;;1.17;;
34876;SDS011;21086;44.780;17.194;2022-09-13T09:21:50;3.88;;;1.27;;
34876;SDS011;21086;44.780;17.194;2022-09-13T09:24:19;4.95;;;0.82;;
34876;SDS011;21086;44.780;17.194;2022-09-13T09:26:49;3.85;;;1.25;;
34876;SDS011;21086;44.780;17.194;2022-09-13T09:29:30;1.80;;;1.20;;
34876;SDS011;21086;44.780;17.194;2022-09-13T09:41:27;1.67;;;1.10;;
34876;SDS011;21086;44.780;17.194;2022-09-13T09:44:02;2.20;;;1.10;;
34876;SDS011;21086;44.780;17.194;2022-09-13T09:46:42;3.20;;;1.10;;
34876;SDS011;21086;44.780;17.194;2022-09-13T09:52:06;1.33;;;0.98;;
34876;SDS011;21086;44.780;17.194;2022-09-13T09:54:37;1.92;;;1.20;;
34876;SDS011;21086;44.780;17.194;2022-09-13T09:57:06;1.45;;;1.13;;
34876;SDS011;21086;44.780;17.194;2022-09-13T09:59:34;2.22;;;0.95;;
34876;SDS011;21086;44.780;17.194;2022-09-13T10:02:12;1.40;;;0.88;;
34876;SDS011;21086;44.780;17.194;2022-09-13T10:04:54;1.85;;;0.57;;
34876;SDS011;21086;44.780;17.194;2022-09-13T10:07:23;2.75;;;0.80;;
34876;SDS011;21086;44.780;17.194;2022-09-13T10:10:02;2.90;;;0.98;;
34876;SDS011;21086;44.780;17.194;2022-09-13T10:12:34;1.13;;;0.90;;
34876;SDS011;21086;44.780;17.194;2022-09-13T10:15:15;1.02;;;0.70;;
34876;SDS011;21086;44.780;17.194;2022-09-13T10:17:59;1.00;;;0.73;;
34876;SDS011;21086;44.780;17.194;2022-09-13T10:23:35;0.65;;;0.43;;
34876;SDS011;21086;44.780;17.194;2022-09-13T10:28:40;1.90;;;0.45;;
34876;SDS011;21086;44.780;17.194;2022-09-13T10:31:14;0.50;;;0.40;;
34876;SDS011;21086;44.780;17.194;2022-09-13T10:33:55;0.82;;;0.38;;
34876;SDS011;21086;44.780;17.194;2022-09-13T10:36:32;0.63;;;0.40;;
34876;SDS011;21086;44.780;17.194;2022-09-13T10:39:18;0.30;;;0.30;;
34876;SDS011;21086;44.780;17.194;2022-09-13T10:41:54;0.35;;;0.30;;
34876;SDS011;21086;44.780;17.194;2022-09-13T10:44:39;0.40;;;0.30;;
34876;SDS011;21086;44.780;17.194;2022-09-13T10:47:11;2.92;;;0.47;;
34876;SDS011;21086;44.780;17.194;2022-09-13T10:49:50;1.02;;;0.20;;
34876;SDS011;21086;44.780;17.194;2022-09-13T10:52:27;0.65;;;0.30;;
34876;SDS011;21086;44.780;17.194;2022-09-13T10:57:47;0.65;;;0.30;;
34876;SDS011;21086;44.780;17.194;2022-09-13T11:01:05;0.43;;;0.30;;
34876;SDS011;21086;44.780;17.194;2022-09-13T11:03:25;0.60;;;0.30;;
34876;SDS011;21086;44.780;17.194;2022-09-13T11:13:57;0.05;;;0.03;;
34876;SDS011;21086;44.780;17.194;2022-09-13T11:27:54;1.60;;;0.40;;
34876;SDS011;21086;44.780;17.194;2022-09-13T11:30:24;4.93;;;0.25;;
34876;SDS011;21086;44.780;17.194;2022-09-13T11:36:15;1.00;;;0.20;;
34876;SDS011;21086;44.780;17.194;2022-09-13T11:39:27;0.47;;;0.20;;
34876;SDS011;21086;44.780;17.194;2022-09-13T11:42:05;1.67;;;0.13;;
34876;SDS011;21086;44.780;17.194;2022-09-13T11:44:43;0.70;;;0.20;;
34876;SDS011;21086;44.780;17.194;2022-09-13T11:47:38;0.45;;;0.10;;
34876;SDS011;21086;44.780;17.194;2022-09-13T11:55:59;0.35;;;0.20;;
34876;SDS011;21086;44.780;17.194;2022-09-13T11:58:38;0.10;;;0.10;;
34876;SDS011;21086;44.780;17.194;2022-09-13T12:01:15;2.15;;;0.30;;
34876;SDS011;21086;44.780;17.194;2022-09-13T12:03:51;4.40;;;0.35;;
34876;SDS011;21086;44.780;17.194;2022-09-13T12:06:30;0.80;;;0.25;;
34876;SDS011;21086;44.780;17.194;2022-09-13T12:09:04;1.92;;;0.28;;
34876;SDS011;21086;44.780;17.194;2022-09-13T12:11:37;0.88;;;0.30;;
34876;SDS011;21086;44.780;17.194;2022-09-13T12:14:20;1.08;;;0.20;;
34876;SDS011;21086;44.780;17.194;2022-09-13T12:16:52;2.72;;;0.40;;
34876;SDS011;21086;44.780;17.194;2022-09-13T12:19:35;0.17;;;0.17;;
34876;SDS011;21086;44.780;17.194;2022-09-13T12:22:08;0.25;;;0.20;;
34876;SDS011;21086;44.780;17.194;2022-09-13T12:24:41;0.95;;;0.10;;
34876;SDS011;21086;44.780;17.194;2022-09-13T12:30:15;2.95;;;0.30;;
34876;SDS011;21086;44.780;17.194;2022-09-13T12:32:48;0.80;;;0.20;;
34876;SDS011;21086;44.780;17.194;2022-09-13T12:35:23;0.32;;;0.25;;
34876;SDS011;21086;44.780;17.194;2022-09-13T12:38:16;1.00;;;0.30;;
34876;SDS011;21086;44.780;17.194;2022-09-13T12:49:22;3.08;;;0.22;;
34876;SDS011;21086;44.780;17.194;2022-09-13T12:51:56;0.65;;;0.20;;
34876;SDS011;21086;44.780;17.194;2022-09-13T13:02:59;1.15;;;0.20;;
34876;SDS011;21086;44.780;17.194;2022-09-13T13:08:34;1.27;;;0.20;;
34876;SDS011;21086;44.780;17.194;2022-09-13T13:16:19;1.58;;;0.20;;
34876;SDS011;21086;44.780;17.194;2022-09-13T13:18:56;0.50;;;0.28;;
34876;SDS011;21086;44.780;17.194;2022-09-13T13:21:26;0.10;;;0.10;;
34876;SDS011;21086;44.780;17.194;2022-09-13T13:26:42;1.40;;;0.15;;
34876;SDS011;21086;44.780;17.194;2022-09-13T13:29:20;1.80;;;0.17;;
34876;SDS011;21086;44.780;17.194;2022-09-13T13:34:28;0.10;;;0.10;;
34876;SDS011;21086;44.780;17.194;2022-09-13T13:52:36;0.75;;;0.22;;
34876;SDS011;21086;44.780;17.194;2022-09-13T14:00:46;1.38;;;0.17;;
34876;SDS011;21086;44.780;17.194;2022-09-13T14:06:12;3.63;;;0.30;;
34876;SDS011;21086;44.780;17.194;2022-09-13T14:19:56;1.10;;;0.10;;
34876;SDS011;21086;44.780;17.194;2022-09-13T14:22:38;0.20;;;0.20;;
34876;SDS011;21086;44.780;17.194;2022-09-13T14:25:17;1.10;;;0.45;;
34876;SDS011;21086;44.780;17.194;2022-09-13T14:27:49;1.08;;;0.32;;
34876;SDS011;21086;44.780;17.194;2022-09-13T14:30:27;1.13;;;0.30;;
34876;SDS011;21086;44.780;17.194;2022-09-13T14:32:58;3.10;;;0.40;;
34876;SDS011;21086;44.780;17.194;2022-09-13T14:37:56;1.55;;;0.30;;
34876;SDS011;21086;44.780;17.194;2022-09-13T14:41:10;1.15;;;0.40;;
34876;SDS011;21086;44.780;17.194;2022-09-13T14:43:40;0.80;;;0.20;;
34876;SDS011;21086;44.780;17.194;2022-09-13T14:46:10;0.40;;;0.30;;
34876;SDS011;21086;44.780;17.194;2022-09-13T14:49:08;0.50;;;0.20;;
34876;SDS011;21086;44.780;17.194;2022-09-13T14:51:54;0.55;;;0.20;;
34876;SDS011;21086;44.780;17.194;2022-09-13T14:57:31;0.45;;;0.30;;
34876;SDS011;21086;44.780;17.194;2022-09-13T15:00:04;0.88;;;0.40;;
34876;SDS011;21086;44.780;17.194;2022-09-13T15:02:41;1.65;;;0.20;;
34876;SDS011;21086;44.780;17.194;2022-09-13T15:05:17;1.48;;;0.40;;
34876;SDS011;21086;44.780;17.194;2022-09-13T15:07:46;1.65;;;0.30;;
34876;SDS011;21086;44.780;17.194;2022-09-13T15:12:54;0.73;;;0.25;;
34876;SDS011;21086;44.780;17.194;2022-09-13T15:23:17;1.08;;;0.30;;
34876;SDS011;21086;44.780;17.194;2022-09-13T15:25:50;2.30;;;0.55;;
34876;SDS011;21086;44.780;17.194;2022-09-13T15:31:10;1.58;;;0.30;;
34876;SDS011;21086;44.780;17.194;2022-09-13T15:33:46;1.27;;;0.25;;
34876;SDS011;21086;44.780;17.194;2022-09-13T15:36:24;0.50;;;0.40;;
34876;SDS011;21086;44.780;17.194;2022-09-13T15:39:40;1.60;;;0.35;;
34876;SDS011;21086;44.780;17.194;2022-09-13T15:41:52;0.75;;;0.30;;
34876;SDS011;21086;44.780;17.194;2022-09-13T15:44:20;0.60;;;0.30;;
34876;SDS011;21086;44.780;17.194;2022-09-13T15:46:51;0.52;;;0.30;;
34876;SDS011;21086;44.780;17.194;2022-09-13T15:49:21;2.10;;;0.50;;
34876;SDS011;21086;44.780;17.194;2022-09-13T15:51:56;2.05;;;0.45;;
34876;SDS011;21086;44.780;17.194;2022-09-13T15:56:58;1.55;;;0.38;;
34876;SDS011;21086;44.780;17.194;2022-09-13T15:59:25;3.25;;;0.30;;
34876;SDS011;21086;44.780;17.194;2022-09-13T16:01:52;4.43;;;0.60;;
34876;SDS011;21086;44.780;17.194;2022-09-13T16:04:20;1.42;;;0.30;;
34876;SDS011;21086;44.780;17.194;2022-09-13T16:06:47;2.03;;;0.52;;
34876;SDS011;21086;44.780;17.194;2022-09-13T16:11:46;2.45;;;0.45;;
34876;SDS011;21086;44.780;17.194;2022-09-13T16:14:14;0.75;;;0.40;;
34876;SDS011;21086;44.780;17.194;2022-09-13T16:16:42;0.65;;;0.20;;
34876;SDS011;21086;44.780;17.194;2022-09-13T16:19:17;4.78;;;0.60;;
34876;SDS011;21086;44.780;17.194;2022-09-13T16:21:46;0.82;;;0.30;;
34876;SDS011;21086;44.780;17.194;2022-09-13T16:24:14;0.88;;;0.65;;
34876;SDS011;21086;44.780;17.194;2022-09-13T16:26:41;1.25;;;0.47;;
34876;SDS011;21086;44.780;17.194;2022-09-13T16:29:09;1.08;;;0.57;;
34876;SDS011;21086;44.780;17.194;2022-09-13T16:31:36;3.97;;;0.60;;
34876;SDS011;21086;44.780;17.194;2022-09-13T16:34:04;3.03;;;0.60;;
34876;SDS011;21086;44.780;17.194;2022-09-13T16:36:31;0.77;;;0.65;;
34876;SDS011;21086;44.780;17.194;2022-09-13T16:38:59;5.03;;;0.98;;
34876;SDS011;21086;44.780;17.194;2022-09-13T16:41:27;1.33;;;0.73;;
34876;SDS011;21086;44.780;17.194;2022-09-13T16:43:54;4.07;;;1.00;;
34876;SDS011;21086;44.780;17.194;2022-09-13T16:46:21;2.67;;;1.55;;
34876;SDS011;21086;44.780;17.194;2022-09-13T16:48:51;3.22;;;1.83;;
34876;SDS011;21086;44.780;17.194;2022-09-13T16:51:22;5.90;;;1.80;;
34876;SDS011;21086;44.780;17.194;2022-09-13T16:53:50;5.22;;;1.50;;
34876;SDS011;21086;44.780;17.194;2022-09-13T16:56:19;6.75;;;2.00;;
34876;SDS011;21086;44.780;17.194;2022-09-13T16:58:49;3.13;;;1.48;;
34876;SDS011;21086;44.780;17.194;2022-09-13T17:01:18;2.80;;;1.88;;
34876;SDS011;21086;44.780;17.194;2022-09-13T17:03:47;4.72;;;1.33;;
34876;SDS011;21086;44.780;17.194;2022-09-13T17:06:19;3.00;;;1.92;;
34876;SDS011;21086;44.780;17.194;2022-09-13T17:08:48;5.35;;;2.08;;
34876;SDS011;21086;44.780;17.194;2022-09-13T17:11:19;4.20;;;1.70;;
34876;SDS011;21086;44.780;17.194;2022-09-13T17:13:47;3.55;;;1.65;;
34876;SDS011;21086;44.780;17.194;2022-09-13T17:16:33;7.13;;;2.20;;
34876;SDS011;21086;44.780;17.194;2022-09-13T17:19:05;3.47;;;1.90;;
34876;SDS011;21086;44.780;17.194;2022-09-13T17:21:33;5.18;;;2.28;;
34876;SDS011;21086;44.780;17.194;2022-09-13T17:24:01;5.88;;;2.70;;
34876;SDS011;21086;44.780;17.194;2022-09-13T17:26:28;4.25;;;1.70;;
34876;SDS011;21086;44.780;17.194;2022-09-13T17:28:55;4.05;;;1.60;;
34876;SDS011;21086;44.780;17.194;2022-09-13T17:31:22;3.78;;;1.65;;
34876;SDS011;21086;44.780;17.194;2022-09-13T17:33:49;1.75;;;1.13;;
34876;SDS011;21086;44.780;17.194;2022-09-13T17:36:18;4.43;;;1.45;;
34876;SDS011;21086;44.780;17.194;2022-09-13T17:38:45;4.60;;;1.58;;
34876;SDS011;21086;44.780;17.194;2022-09-13T17:41:16;4.15;;;1.65;;
34876;SDS011;21086;44.780;17.194;2022-09-13T17:43:44;3.90;;;1.95;;
34876;SDS011;21086;44.780;17.194;2022-09-13T17:46:15;6.15;;;1.67;;
34876;SDS011;21086;44.780;17.194;2022-09-13T17:48:47;3.97;;;1.70;;
34876;SDS011;21086;44.780;17.194;2022-09-13T17:51:19;5.85;;;2.42;;
34876;SDS011;21086;44.780;17.194;2022-09-13T17:53:48;8.43;;;3.22;;
34876;SDS011;21086;44.780;17.194;2022-09-13T17:56:20;4.63;;;2.03;;
34876;SDS011;21086;44.780;17.194;2022-09-13T17:58:55;3.92;;;2.25;;
34876;SDS011;21086;44.780;17.194;2022-09-13T18:01:34;3.97;;;2.08;;
34876;SDS011;21086;44.780;17.194;2022-09-13T18:04:03;3.42;;;2.00;;
34876;SDS011;21086;44.780;17.194;2022-09-13T18:06:33;6.25;;;2.80;;
34876;SDS011;21086;44.780;17.194;2022-09-13T18:09:00;7.88;;;2.65;;
34876;SDS011;21086;44.780;17.194;2022-09-13T18:11:29;5.68;;;2.55;;
34876;SDS011;21086;44.780;17.194;2022-09-13T18:13:56;5.32;;;2.88;;
34876;SDS011;21086;44.780;17.194;2022-09-13T18:16:24;6.75;;;3.28;;
34876;SDS011;21086;44.780;17.194;2022-09-13T18:18:52;5.28;;;2.38;;
34876;SDS011;21086;44.780;17.194;2022-09-13T18:21:20;5.93;;;2.30;;
34876;SDS011;21086;44.780;17.194;2022-09-13T18:23:50;4.45;;;2.97;;
34876;SDS011;21086;44.780;17.194;2022-09-13T18:26:20;4.32;;;2.47;;